Time;durP1;ratioP1;P1;durP2;ratioP2;P2;SDS_P1;SDS_P2;PMS_P1;PMS_P2;Temp;Humidity;BMP_temperature;BMP_pressure;BME280_temperature;BME280_humidity;BME280_pressure;Samples;Min_cycle;Max_cycle;Signal;HPM_P1;HPM_P2
2023/09/05 00:02:26;;;;;;;56.97;2.60;;;;;;;;;;5070423;28;20454;-69
2023/09/05 00:04:55;;;;;;;57.20;2.90;;;;;;;;;;5070454;28;21002;-69
2023/09/05 00:07:24;;;;;;;56.97;2.70;;;;;;;;;;5070461;28;20487;-69
2023/09/05 00:09:51;;;;;;;57.07;2.70;;;;;;;;;;5070373;28;20451;-70
2023/09/05 00:12:18;;;;;;;57.87;3.37;;;;;;;;;;5070494;28;20445;-68
2023/09/05 00:14:45;;;;;;;56.77;2.50;;;;;;;;;;5070819;28;20466;-69
2023/09/05 00:17:12;;;;;;;57.10;2.50;;;;;;;;;;5070507;28;20440;-69
2023/09/05 00:19:39;;;;;;;58.47;3.53;;;;;;;;;;5070457;28;20458;-69
2023/09/05 00:22:06;;;;;;;57.93;3.53;;;;;;;;;;5070021;28;20447;-68
2023/09/05 00:24:37;;;;;;;57.17;2.80;;;;;;;;;;5070558;28;20538;-69
2023/09/05 00:27:07;;;;;;;58.77;3.03;;;;;;;;;;5070409;28;20509;-68
2023/09/05 00:29:34;;;;;;;56.93;2.60;;;;;;;;;;5070361;28;20874;-68
2023/09/05 00:32:02;;;;;;;57.77;3.17;;;;;;;;;;5069944;28;20987;-71
2023/09/05 00:34:29;;;;;;;57.30;3.17;;;;;;;;;;5070124;28;21038;-69
2023/09/05 00:36:58;;;;;;;57.07;2.83;;;;;;;;;;5070047;28;20465;-69
2023/09/05 00:39:26;;;;;;;58.10;2.90;;;;;;;;;;5070399;28;20450;-68
2023/09/05 00:41:56;;;;;;;56.90;2.43;;;;;;;;;;5070144;28;20462;-69
2023/09/05 00:44:23;;;;;;;56.80;2.67;;;;;;;;;;5070179;28;20542;-69
2023/09/05 00:46:51;;;;;;;57.20;3.23;;;;;;;;;;5073270;28;20486;-69
2023/09/05 00:49:20;;;;;;;56.97;2.70;;;;;;;;;;5073460;28;20448;-69
2023/09/05 00:51:50;;;;;;;56.90;2.63;;;;;;;;;;5073656;28;20447;-69
2023/09/05 00:54:18;;;;;;;56.93;2.77;;;;;;;;;;5075067;28;21020;-69
2023/09/05 00:56:45;;;;;;;57.30;2.60;;;;;;;;;;5079364;28;20454;-68
2023/09/05 00:59:14;;;;;;;57.30;3.40;;;;;;;;;;5078925;28;20447;-69
2023/09/05 01:01:41;;;;;;;60.03;3.20;;;;;;;;;;5079060;28;20955;-69
2023/09/05 01:04:08;;;;;;;56.80;2.80;;;;;;;;;;5079493;28;20459;-69
2023/09/05 01:06:39;;;;;;;57.17;2.60;;;;;;;;;;5078880;28;20536;-70
2023/09/05 01:09:14;;;;;;;56.67;2.33;;;;;;;;;;5079151;28;20491;-70
2023/09/05 01:11:42;;;;;;;57.10;2.60;;;;;;;;;;5078642;28;20447;-70
2023/09/05 01:14:09;;;;;;;56.67;2.70;;;;;;;;;;5078366;28;20448;-70
2023/09/05 01:16:45;;;;;;;56.70;2.40;;;;;;;;;;5079059;28;20530;-72
2023/09/05 01:19:14;;;;;;;56.47;2.30;;;;;;;;;;5078482;28;20538;-70
2023/09/05 01:21:46;;;;;;;56.67;2.50;;;;;;;;;;5078049;28;20443;-70
2023/09/05 01:24:17;;;;;;;56.47;2.30;;;;;;;;;;5078377;28;20977;-71
2023/09/05 01:26:45;;;;;;;56.70;2.30;;;;;;;;;;5075287;28;20483;-70
2023/09/05 01:29:15;;;;;;;56.87;2.40;;;;;;;;;;5076429;28;20483;-70
2023/09/05 01:31:42;;;;;;;56.67;2.60;;;;;;;;;;5077828;28;20450;-70
2023/09/05 01:34:09;;;;;;;56.70;2.70;;;;;;;;;;5076188;28;20474;-70
2023/09/05 01:36:37;;;;;;;57.00;2.70;;;;;;;;;;5074865;28;20477;-70
2023/09/05 01:39:04;;;;;;;57.47;2.80;;;;;;;;;;5071582;28;20454;-70
2023/09/05 01:41:32;;;;;;;57.27;3.37;;;;;;;;;;5072769;28;20490;-70
2023/09/05 01:43:59;;;;;;;56.57;2.30;;;;;;;;;;5072481;28;20500;-70
2023/09/05 01:46:27;;;;;;;56.57;2.27;;;;;;;;;;5072428;28;20493;-70
2023/09/05 01:48:54;;;;;;;56.70;2.17;;;;;;;;;;5072774;28;20509;-69
2023/09/05 01:51:21;;;;;;;58.13;2.80;;;;;;;;;;5072581;28;20453;-69
2023/09/05 01:53:48;;;;;;;56.77;2.60;;;;;;;;;;5072672;28;20469;-69
2023/09/05 01:56:15;;;;;;;56.80;2.40;;;;;;;;;;5071609;28;20465;-69
2023/09/05 01:58:43;;;;;;;56.60;2.37;;;;;;;;;;5072072;28;20788;-70
2023/09/05 02:01:10;;;;;;;57.20;2.40;;;;;;;;;;5072366;28;20465;-69
2023/09/05 02:03:38;;;;;;;56.37;2.20;;;;;;;;;;5072007;28;20835;-71
2023/09/05 02:06:05;;;;;;;56.63;2.40;;;;;;;;;;5072455;28;20478;-69
2023/09/05 02:08:33;;;;;;;56.73;2.50;;;;;;;;;;5072151;28;20494;-71
2023/09/05 02:11:00;;;;;;;56.50;2.10;;;;;;;;;;5072330;28;20447;-70
2023/09/05 02:13:27;;;;;;;56.67;2.40;;;;;;;;;;5071886;28;20811;-69
2023/09/05 02:15:56;;;;;;;56.53;2.30;;;;;;;;;;5071983;28;20467;-70
2023/09/05 02:18:23;;;;;;;56.57;2.30;;;;;;;;;;5072200;28;20498;-70
2023/09/05 02:20:50;;;;;;;57.00;2.63;;;;;;;;;;5072204;28;20440;-70
2023/09/05 02:23:17;;;;;;;57.30;2.60;;;;;;;;;;5071853;28;20450;-70
2023/09/05 02:25:56;;;;;;;57.30;3.03;;;;;;;;;;5071884;28;20467;-71
2023/09/05 02:28:23;;;;;;;56.70;2.23;;;;;;;;;;5071828;28;20482;-69
2023/09/05 02:30:50;;;;;;;56.33;2.20;;;;;;;;;;5072009;28;20756;-69
2023/09/05 02:33:19;;;;;;;57.03;2.47;;;;;;;;;;5071574;28;20471;-69
2023/09/05 02:35:46;;;;;;;56.73;2.23;;;;;;;;;;5071716;28;20826;-69
2023/09/05 02:38:14;;;;;;;57.67;3.00;;;;;;;;;;5071606;28;20462;-71
2023/09/05 02:40:44;;;;;;;56.77;2.33;;;;;;;;;;5071402;28;20447;-71
2023/09/05 02:43:11;;;;;;;57.20;2.30;;;;;;;;;;5071206;28;20447;-71
2023/09/05 02:45:38;;;;;;;56.70;2.50;;;;;;;;;;5071297;28;21089;-69
2023/09/05 02:48:06;;;;;;;56.63;2.30;;;;;;;;;;5071597;28;20479;-70
2023/09/05 02:50:34;;;;;;;56.77;2.50;;;;;;;;;;5071562;28;20451;-69
2023/09/05 02:53:01;;;;;;;56.87;2.30;;;;;;;;;;5071154;28;20458;-70
2023/09/05 02:55:29;;;;;;;56.90;2.60;;;;;;;;;;5071167;28;20481;-69
2023/09/05 02:57:56;;;;;;;56.73;2.23;;;;;;;;;;5071311;28;20440;-69
2023/09/05 03:00:23;;;;;;;56.60;2.40;;;;;;;;;;5071535;28;20443;-69
2023/09/05 03:02:52;;;;;;;56.67;2.70;;;;;;;;;;5070953;28;20449;-69
2023/09/05 03:05:19;;;;;;;56.77;2.40;;;;;;;;;;5071250;28;20468;-71
2023/09/05 03:07:48;;;;;;;56.63;2.30;;;;;;;;;;5070800;28;20439;-69
2023/09/05 03:10:15;;;;;;;56.43;2.33;;;;;;;;;;5071054;28;20456;-71
2023/09/05 03:12:43;;;;;;;56.57;2.40;;;;;;;;;;5071071;28;20826;-69
2023/09/05 03:15:10;;;;;;;56.67;2.33;;;;;;;;;;5071168;28;20469;-70
2023/09/05 03:17:37;;;;;;;56.77;2.67;;;;;;;;;;5070918;28;20447;-69
2023/09/05 03:20:07;;;;;;;57.30;2.80;;;;;;;;;;5071058;28;20439;-69
2023/09/05 03:22:34;;;;;;;56.90;2.50;;;;;;;;;;5070742;28;20538;-71
2023/09/05 03:25:02;;;;;;;56.73;2.40;;;;;;;;;;5071205;28;20478;-70
2023/09/05 03:27:30;;;;;;;56.67;2.30;;;;;;;;;;5070392;28;20538;-70
2023/09/05 03:29:57;;;;;;;58.13;3.57;;;;;;;;;;5070780;28;21015;-70
2023/09/05 03:32:24;;;;;;;56.60;2.57;;;;;;;;;;5068433;28;20445;-72
2023/09/05 03:34:51;;;;;;;57.20;2.40;;;;;;;;;;5070852;28;20550;-70
2023/09/05 03:37:19;;;;;;;57.00;2.80;;;;;;;;;;5070304;28;20939;-70
2023/09/05 03:39:46;;;;;;;56.97;2.87;;;;;;;;;;5070700;28;20446;-71
2023/09/05 03:42:14;;;;;;;57.07;2.70;;;;;;;;;;5070822;28;20822;-71
2023/09/05 03:44:41;;;;;;;56.67;2.60;;;;;;;;;;5070675;28;20470;-71
2023/09/05 03:47:09;;;;;;;56.67;2.30;;;;;;;;;;5070590;28;20951;-71
2023/09/05 03:49:36;;;;;;;57.60;3.00;;;;;;;;;;5070546;28;20479;-70
2023/09/05 03:52:03;;;;;;;56.60;2.43;;;;;;;;;;5070766;28;20776;-71
2023/09/05 03:54:30;;;;;;;57.97;3.00;;;;;;;;;;5070811;28;20463;-70
2023/09/05 03:56:57;;;;;;;56.80;2.60;;;;;;;;;;5070712;28;20479;-70
2023/09/05 03:59:25;;;;;;;56.87;2.40;;;;;;;;;;5070523;28;20443;-70
2023/09/05 04:01:52;;;;;;;56.90;2.50;;;;;;;;;;5070420;28;20801;-70
2023/09/05 04:04:19;;;;;;;56.57;2.60;;;;;;;;;;5070394;28;20451;-70
2023/09/05 04:06:47;;;;;;;56.70;2.90;;;;;;;;;;5070434;28;20446;-71
2023/09/05 04:09:14;;;;;;;56.87;2.47;;;;;;;;;;5070613;28;20855;-70
2023/09/05 04:11:41;;;;;;;56.87;2.63;;;;;;;;;;5070410;28;20604;-71
2023/09/05 04:14:08;;;;;;;56.70;2.50;;;;;;;;;;5070586;28;20440;-70
2023/09/05 04:16:36;;;;;;;57.50;2.70;;;;;;;;;;5070451;28;20782;-70
2023/09/05 04:19:03;;;;;;;56.90;2.67;;;;;;;;;;5070272;28;20454;-71
2023/09/05 04:21:30;;;;;;;57.10;2.70;;;;;;;;;;5073505;28;20924;-70
2023/09/05 04:23:57;;;;;;;56.47;2.43;;;;;;;;;;5074113;28;20443;-71
2023/09/05 04:26:25;;;;;;;57.43;3.13;;;;;;;;;;5074076;28;20459;-70
2023/09/05 04:28:52;;;;;;;58.40;3.00;;;;;;;;;;5074005;28;20891;-71
2023/09/05 04:31:19;;;;;;;56.70;2.73;;;;;;;;;;5073920;28;20454;-70
2023/09/05 04:33:48;;;;;;;57.07;2.90;;;;;;;;;;5073952;28;20455;-70
2023/09/05 04:36:15;;;;;;;58.50;2.80;;;;;;;;;;5073838;28;20459;-70
2023/09/05 04:38:44;;;;;;;56.80;2.47;;;;;;;;;;5074174;28;20470;-72
2023/09/05 04:41:11;;;;;;;56.70;2.53;;;;;;;;;;5073881;28;20454;-70
2023/09/05 04:43:39;;;;;;;56.80;2.67;;;;;;;;;;5073622;28;20455;-69
2023/09/05 04:46:08;;;;;;;56.67;2.40;;;;;;;;;;5073537;28;20463;-70
2023/09/05 04:48:35;;;;;;;57.00;2.53;;;;;;;;;;5073892;28;20475;-70
2023/09/05 04:51:04;;;;;;;56.83;2.50;;;;;;;;;;5073840;28;20470;-71
2023/09/05 04:53:31;;;;;;;57.00;2.60;;;;;;;;;;5073633;28;20800;-70
2023/09/05 04:56:00;;;;;;;57.00;2.90;;;;;;;;;;5073471;28;21037;-70
2023/09/05 04:58:27;;;;;;;56.53;2.60;;;;;;;;;;5073369;28;20451;-70
2023/09/05 05:00:56;;;;;;;56.90;2.60;;;;;;;;;;5073710;28;20443;-70
2023/09/05 05:03:24;;;;;;;56.70;2.53;;;;;;;;;;5073626;28;20516;-70
2023/09/05 05:05:51;;;;;;;56.90;2.70;;;;;;;;;;5073484;28;20468;-69
2023/09/05 05:08:19;;;;;;;56.70;2.50;;;;;;;;;;5073294;28;20963;-71
2023/09/05 05:10:46;;;;;;;56.87;2.50;;;;;;;;;;5073377;28;20781;-70
2023/09/05 05:13:13;;;;;;;56.93;2.50;;;;;;;;;;5073484;28;20454;-70
2023/09/05 05:15:41;;;;;;;56.57;2.70;;;;;;;;;;5073325;28;20557;-72
2023/09/05 05:18:08;;;;;;;56.57;2.50;;;;;;;;;;5073319;28;20448;-70
2023/09/05 05:20:35;;;;;;;56.83;2.53;;;;;;;;;;5073070;28;20530;-72
2023/09/05 05:23:02;;;;;;;56.80;2.90;;;;;;;;;;5072783;28;20455;-69
2023/09/05 05:25:32;;;;;;;56.67;2.60;;;;;;;;;;5070441;28;20467;-70
2023/09/05 05:27:59;;;;;;;56.60;2.57;;;;;;;;;;5072971;28;20447;-72
2023/09/05 05:30:26;;;;;;;56.47;2.50;;;;;;;;;;5072758;28;20862;-70
2023/09/05 05:32:53;;;;;;;56.87;2.40;;;;;;;;;;5072295;28;20458;-72
2023/09/05 05:35:20;;;;;;;57.00;3.10;;;;;;;;;;5072809;28;20562;-69
2023/09/05 05:37:47;;;;;;;56.60;2.50;;;;;;;;;;5073253;28;20458;-70
2023/09/05 05:40:14;;;;;;;56.90;2.80;;;;;;;;;;5072696;28;20469;-70
2023/09/05 05:42:43;;;;;;;56.80;2.53;;;;;;;;;;5072628;28;20443;-71
2023/09/05 05:45:10;;;;;;;57.63;2.87;;;;;;;;;;5072971;28;20470;-70
2023/09/05 05:47:38;;;;;;;56.57;2.57;;;;;;;;;;5072460;28;20455;-71
2023/09/05 05:50:06;;;;;;;56.80;2.70;;;;;;;;;;5072569;28;20877;-69
2023/09/05 05:52:34;;;;;;;56.67;2.33;;;;;;;;;;5072209;28;20822;-69
2023/09/05 05:55:01;;;;;;;56.77;2.57;;;;;;;;;;5072614;28;20467;-70
2023/09/05 05:57:28;;;;;;;56.27;2.40;;;;;;;;;;5072463;28;20490;-71
2023/09/05 05:59:56;;;;;;;57.00;2.50;;;;;;;;;;5072460;28;20835;-70
2023/09/05 06:02:23;;;;;;;57.00;2.67;;;;;;;;;;5072031;28;20458;-69
2023/09/05 06:04:51;;;;;;;56.70;2.40;;;;;;;;;;5072216;28;20876;-70
2023/09/05 06:07:18;;;;;;;56.97;2.70;;;;;;;;;;5071968;28;20448;-68
2023/09/05 06:09:45;;;;;;;56.67;2.40;;;;;;;;;;5072203;28;20952;-68
2023/09/05 06:12:12;;;;;;;56.60;2.50;;;;;;;;;;5071967;28;20515;-68
2023/09/05 06:14:39;;;;;;;56.50;2.60;;;;;;;;;;5071932;28;20471;-68
2023/09/05 06:17:07;;;;;;;56.57;2.40;;;;;;;;;;5072013;28;20804;-68
2023/09/05 06:19:34;;;;;;;56.97;2.93;;;;;;;;;;5072029;28;20447;-70
2023/09/05 06:22:02;;;;;;;56.37;2.50;;;;;;;;;;5071564;28;20920;-68
2023/09/05 06:24:29;;;;;;;56.57;2.57;;;;;;;;;;5071935;28;20443;-68
2023/09/05 06:26:56;;;;;;;56.70;2.60;;;;;;;;;;5071592;28;20451;-68
2023/09/05 06:29:23;;;;;;;56.50;2.50;;;;;;;;;;5071612;28;21006;-70
2023/09/05 06:31:50;;;;;;;56.63;2.40;;;;;;;;;;5071479;28;20454;-69
2023/09/05 06:34:19;;;;;;;56.37;2.40;;;;;;;;;;5071299;28;20495;-69
2023/09/05 06:36:46;;;;;;;56.57;2.37;;;;;;;;;;5071558;28;20463;-69
2023/09/05 06:39:13;;;;;;;56.03;2.30;;;;;;;;;;5071711;28;20443;-68
2023/09/05 06:41:41;;;;;;;57.10;2.73;;;;;;;;;;5071118;28;20542;-70
2023/09/05 06:44:07;;;;;;;56.53;2.27;;;;;;;;;;5070865;28;20494;-67
2023/09/05 06:46:35;;;;;;;56.70;2.83;;;;;;;;;;5071327;28;20501;-68
2023/09/05 06:49:02;;;;;;;56.37;2.47;;;;;;;;;;5071179;28;20455;-69
2023/09/05 06:51:30;;;;;;;56.43;2.20;;;;;;;;;;5071186;28;20462;-69
2023/09/05 06:53:58;;;;;;;56.33;2.23;;;;;;;;;;5071234;28;20440;-70
2023/09/05 06:56:25;;;;;;;56.77;2.90;;;;;;;;;;5071050;28;20474;-70
2023/09/05 06:58:53;;;;;;;58.60;2.73;;;;;;;;;;5071275;28;20459;-69
2023/09/05 07:01:20;;;;;;;56.47;2.40;;;;;;;;;;5071123;28;20837;-70
2023/09/05 07:03:47;;;;;;;56.53;2.33;;;;;;;;;;5070796;28;20531;-70
2023/09/05 07:06:18;;;;;;;56.43;2.30;;;;;;;;;;5071137;28;20455;-69
2023/09/05 07:08:46;;;;;;;56.67;2.20;;;;;;;;;;5071315;28;20894;-69
2023/09/05 07:11:13;;;;;;;56.37;2.40;;;;;;;;;;5070971;28;20571;-68
2023/09/05 07:13:41;;;;;;;56.60;2.40;;;;;;;;;;5070814;28;20447;-69
2023/09/05 07:16:08;;;;;;;56.40;2.30;;;;;;;;;;5070759;28;20479;-70
2023/09/05 07:18:35;;;;;;;56.40;2.07;;;;;;;;;;5071029;28;20447;-69
2023/09/05 07:21:02;;;;;;;56.40;2.53;;;;;;;;;;5071055;28;20439;-70
2023/09/05 07:23:29;;;;;;;56.50;2.50;;;;;;;;;;5070805;28;20534;-69
2023/09/05 07:25:57;;;;;;;56.50;2.10;;;;;;;;;;5067616;28;20476;-71
2023/09/05 07:28:24;;;;;;;56.50;2.07;;;;;;;;;;5068340;28;20452;-69
2023/09/05 07:30:51;;;;;;;57.00;2.00;;;;;;;;;;5070918;28;20487;-68
2023/09/05 07:33:18;;;;;;;56.60;2.00;;;;;;;;;;5070448;28;20935;-69
2023/09/05 07:35:46;;;;;;;56.60;2.60;;;;;;;;;;5070862;28;20490;-70
2023/09/05 07:38:14;;;;;;;56.27;2.17;;;;;;;;;;5070763;28;20457;-69
2023/09/05 07:40:42;;;;;;;56.37;2.20;;;;;;;;;;5070809;28;20489;-69
2023/09/05 07:43:10;;;;;;;56.70;2.57;;;;;;;;;;5070260;28;20450;-70
2023/09/05 07:45:37;;;;;;;56.20;2.10;;;;;;;;;;5070913;28;20477;-70
2023/09/05 07:48:07;;;;;;;56.13;2.20;;;;;;;;;;5070814;28;20947;-70
2023/09/05 07:50:35;;;;;;;56.80;2.33;;;;;;;;;;5070683;28;20479;-70
2023/09/05 07:53:02;;;;;;;56.40;2.10;;;;;;;;;;5070381;28;20458;-70
2023/09/05 07:55:29;;;;;;;58.97;3.40;;;;;;;;;;5073571;28;20833;-70
2023/09/05 07:57:56;;;;;;;57.10;2.63;;;;;;;;;;5074799;28;20447;-70
2023/09/05 08:00:27;;;;;;;56.40;1.87;;;;;;;;;;5075081;28;20439;-70
2023/09/05 08:02:54;;;;;;;57.00;2.17;;;;;;;;;;5074523;28;20531;-70
2023/09/05 08:05:21;;;;;;;56.30;1.90;;;;;;;;;;5074548;28;20809;-70
2023/09/05 08:07:48;;;;;;;56.40;2.10;;;;;;;;;;5074415;28;20478;-70
2023/09/05 08:10:15;;;;;;;55.97;1.90;;;;;;;;;;5074194;28;20486;-70
2023/09/05 08:12:43;;;;;;;56.17;1.80;;;;;;;;;;5074409;28;20542;-70
2023/09/05 08:15:10;;;;;;;57.00;2.20;;;;;;;;;;5074176;28;20478;-70
2023/09/05 08:17:39;;;;;;;56.23;1.87;;;;;;;;;;5074282;28;20436;-70
2023/09/05 08:20:08;;;;;;;56.30;1.87;;;;;;;;;;5074283;28;20443;-71
2023/09/05 08:22:35;;;;;;;56.40;2.00;;;;;;;;;;5073839;28;20453;-70
2023/09/05 08:25:02;;;;;;;56.47;2.00;;;;;;;;;;5074159;28;20547;-70
2023/09/05 08:27:29;;;;;;;55.77;2.03;;;;;;;;;;5074002;28;20443;-68
2023/09/05 08:29:57;;;;;;;56.47;1.80;;;;;;;;;;5074100;28;20483;-69
2023/09/05 08:32:24;;;;;;;56.40;2.17;;;;;;;;;;5073767;28;20439;-69
2023/09/05 08:34:52;;;;;;;56.10;1.97;;;;;;;;;;5073996;28;20489;-70
2023/09/05 08:37:20;;;;;;;56.20;2.10;;;;;;;;;;5073650;28;20461;-68
2023/09/05 08:39:47;;;;;;;57.17;2.87;;;;;;;;;;5073950;28;20450;-68
2023/09/05 08:42:14;;;;;;;56.17;2.00;;;;;;;;;;5073487;28;20458;-70
2023/09/05 08:44:42;;;;;;;56.30;2.00;;;;;;;;;;5073859;28;20508;-70
2023/09/05 08:47:09;;;;;;;56.37;2.00;;;;;;;;;;5073680;28;20466;-69
2023/09/05 08:49:37;;;;;;;55.67;1.90;;;;;;;;;;5073527;28;20857;-72
2023/09/05 08:52:07;;;;;;;56.50;2.00;;;;;;;;;;5073678;28;20443;-69
2023/09/05 08:54:34;;;;;;;56.07;2.10;;;;;;;;;;5073605;28;20546;-72
2023/09/05 08:57:03;;;;;;;56.47;1.90;;;;;;;;;;5073588;28;20462;-72
2023/09/05 08:59:31;;;;;;;56.37;2.33;;;;;;;;;;5073521;28;20455;-69
2023/09/05 09:01:59;;;;;;;56.33;1.80;;;;;;;;;;5073564;28;20456;-70
2023/09/05 09:04:27;;;;;;;56.07;1.90;;;;;;;;;;5073044;28;21204;-72
2023/09/05 09:06:55;;;;;;;55.83;1.90;;;;;;;;;;5072707;28;20443;-70
2023/09/05 09:09:38;;;;;;;56.20;2.00;;;;;;;;;;5073358;28;20443;-70
2023/09/05 09:12:05;;;;;;;56.23;1.93;;;;;;;;;;5073516;28;20530;-70
2023/09/05 09:14:32;;;;;;;56.50;2.10;;;;;;;;;;5073269;28;20554;-70
2023/09/05 09:17:01;;;;;;;59.67;4.30;;;;;;;;;;5073237;28;20443;-70
2023/09/05 09:19:29;;;;;;;57.37;2.50;;;;;;;;;;5073285;28;20808;-69
2023/09/05 09:21:56;;;;;;;56.23;2.17;;;;;;;;;;5072904;28;20494;-69
2023/09/05 09:24:25;;;;;;;57.07;2.87;;;;;;;;;;5070910;28;20443;-69
2023/09/05 09:26:55;;;;;;;55.47;2.10;;;;;;;;;;5064379;28;20455;-70
2023/09/05 09:29:22;;;;;;;56.03;2.00;;;;;;;;;;5064556;28;20543;-69
2023/09/05 09:31:50;;;;;;;56.47;2.23;;;;;;;;;;5072352;28;20489;-69
2023/09/05 09:34:20;;;;;;;58.50;2.47;;;;;;;;;;5072618;28;20501;-69
2023/09/05 09:36:51;;;;;;;56.50;2.20;;;;;;;;;;5072418;28;20455;-70
2023/09/05 09:39:19;;;;;;;56.07;2.10;;;;;;;;;;5072547;28;20450;-69
2023/09/05 09:41:46;;;;;;;56.37;2.60;;;;;;;;;;5072183;28;20526;-70
2023/09/05 09:44:25;;;;;;;56.20;2.10;;;;;;;;;;5072694;28;20529;-69
2023/09/05 09:46:52;;;;;;;56.37;2.60;;;;;;;;;;5072415;28;20443;-69
2023/09/05 09:49:20;;;;;;;56.47;2.10;;;;;;;;;;5072536;28;20458;-69
2023/09/05 09:51:50;;;;;;;56.30;1.90;;;;;;;;;;5072022;28;20486;-69
2023/09/05 09:54:18;;;;;;;56.40;2.17;;;;;;;;;;5072067;28;20473;-68
2023/09/05 09:56:46;;;;;;;56.47;2.07;;;;;;;;;;5072452;28;20475;-69
2023/09/05 09:59:18;;;;;;;56.00;1.80;;;;;;;;;;5072442;28;20444;-69
2023/09/05 10:01:47;;;;;;;56.40;2.00;;;;;;;;;;5072147;28;20447;-68
2023/09/05 10:04:15;;;;;;;56.20;1.97;;;;;;;;;;5071410;28;20464;-68
2023/09/05 10:06:44;;;;;;;56.20;2.10;;;;;;;;;;5071620;28;20447;-70
2023/09/05 10:09:11;;;;;;;56.00;2.00;;;;;;;;;;5072110;28;20451;-70
2023/09/05 10:11:39;;;;;;;58.20;2.30;;;;;;;;;;5072035;28;20491;-71
2023/09/05 10:14:06;;;;;;;56.27;1.70;;;;;;;;;;5072175;28;20443;-70
2023/09/05 10:16:35;;;;;;;55.73;1.67;;;;;;;;;;5071928;28;20479;-70
2023/09/05 10:19:03;;;;;;;55.50;1.60;;;;;;;;;;5070946;28;20443;-69
2023/09/05 10:21:31;;;;;;;55.67;2.00;;;;;;;;;;5071696;28;20444;-69
2023/09/05 10:24:00;;;;;;;55.40;1.67;;;;;;;;;;5071812;28;20458;-72
2023/09/05 10:26:29;;;;;;;55.33;1.63;;;;;;;;;;5071588;28;20467;-70
2023/09/05 10:28:58;;;;;;;55.03;1.60;;;;;;;;;;5071736;28;20448;-70
2023/09/05 10:31:26;;;;;;;55.40;1.70;;;;;;;;;;5071609;28;20479;-68
2023/09/05 10:33:54;;;;;;;55.20;1.60;;;;;;;;;;5071306;28;20450;-68
2023/09/05 10:36:40;;;;;;;55.37;1.80;;;;;;;;;;5071443;28;20501;-68
2023/09/05 10:39:25;;;;;;;55.50;1.80;;;;;;;;;;5149925;27;20596;-68
2023/09/05 10:41:52;;;;;;;55.60;1.80;;;;;;;;;;5149646;27;20454;-68
2023/09/05 10:44:19;;;;;;;55.40;1.70;;;;;;;;;;5149534;27;20462;-70
2023/09/05 10:46:50;;;;;;;55.47;1.80;;;;;;;;;;5149917;27;20432;-68
2023/09/05 10:49:17;;;;;;;56.17;2.03;;;;;;;;;;5149858;27;20436;-68
2023/09/05 10:52:03;;;;;;;55.20;1.83;;;;;;;;;;5149852;27;20864;-68
2023/09/05 10:54:32;;;;;;;55.10;1.50;;;;;;;;;;5149612;27;20543;-67
2023/09/05 10:57:01;;;;;;;54.73;1.40;;;;;;;;;;5149335;27;20539;-69
2023/09/05 10:59:29;;;;;;;55.20;1.50;;;;;;;;;;5149720;27;20538;-68
2023/09/05 11:02:00;;;;;;;55.90;1.77;;;;;;;;;;5149148;27;20458;-67
2023/09/05 11:07:13;;;;;;;55.17;1.70;;;;;;;;;;5147550;27;20478;-69
2023/09/05 11:09:48;;;;;;;54.87;1.40;;;;;;;;;;5149577;27;20447;-69
2023/09/05 11:12:17;;;;;;;54.77;1.60;;;;;;;;;;5148980;27;20439;-69
2023/09/05 11:14:44;;;;;;;55.20;1.47;;;;;;;;;;5149133;27;20857;-70
2023/09/05 11:17:24;;;;;;;54.90;1.70;;;;;;;;;;5149067;27;20526;-69
2023/09/05 11:19:57;;;;;;;55.20;1.83;;;;;;;;;;5148764;27;20443;-69
2023/09/05 11:22:30;;;;;;;55.00;1.90;;;;;;;;;;5148770;27;20931;-69
2023/09/05 11:25:18;;;;;;;55.40;1.60;;;;;;;;;;5147887;27;20499;-69
2023/09/05 11:28:03;;;;;;;54.97;1.70;;;;;;;;;;5143367;27;20508;-69
2023/09/05 11:30:54;;;;;;;55.20;1.90;;;;;;;;;;5140619;27;20456;-71
2023/09/05 11:33:27;;;;;;;55.30;2.00;;;;;;;;;;5136701;27;20531;-69
2023/09/05 11:35:57;;;;;;;54.83;1.57;;;;;;;;;;5140358;27;20524;-71
2023/09/05 11:44:50;;;;;;;54.67;1.60;;;;;;;;;;5124343;27;20535;-70
2023/09/05 11:47:22;;;;;;;55.77;1.70;;;;;;;;;;5148329;27;20444;-68
2023/09/05 11:49:50;;;;;;;54.77;1.40;;;;;;;;;;5139454;27;20539;-68
2023/09/05 11:52:18;;;;;;;54.57;1.40;;;;;;;;;;5134499;27;20471;-69
2023/09/05 11:54:47;;;;;;;55.10;1.80;;;;;;;;;;5135117;27;20460;-71
2023/09/05 11:57:16;;;;;;;54.80;1.50;;;;;;;;;;5134384;27;20557;-69
2023/09/05 11:59:44;;;;;;;55.47;1.70;;;;;;;;;;5134835;27;20463;-69
2023/09/05 12:02:17;;;;;;;54.90;1.50;;;;;;;;;;5134307;27;21076;-68
2023/09/05 12:04:45;;;;;;;54.80;1.67;;;;;;;;;;5134576;27;20460;-69
2023/09/05 12:07:12;;;;;;;54.70;1.40;;;;;;;;;;5134545;27;20440;-69
2023/09/05 12:09:40;;;;;;;54.70;1.77;;;;;;;;;;5134374;27;20441;-69
2023/09/05 12:12:10;;;;;;;54.70;1.60;;;;;;;;;;5134342;27;20440;-69
2023/09/05 12:14:51;;;;;;;54.70;1.53;;;;;;;;;;5134421;27;20543;-69
2023/09/05 12:17:19;;;;;;;54.33;1.47;;;;;;;;;;5134251;27;20441;-69
2023/09/05 12:19:47;;;;;;;54.67;1.70;;;;;;;;;;5134188;27;20455;-72
2023/09/05 12:22:21;;;;;;;54.77;1.57;;;;;;;;;;5133925;27;20451;-69
2023/09/05 12:24:48;;;;;;;54.67;1.53;;;;;;;;;;5134314;27;20456;-69
2023/09/05 12:27:24;;;;;;;55.27;1.80;;;;;;;;;;5134036;27;20453;-69
2023/09/05 12:29:55;;;;;;;54.53;1.60;;;;;;;;;;5134157;27;20526;-69
2023/09/05 12:32:26;;;;;;;54.90;1.70;;;;;;;;;;5133788;27;20535;-70
2023/09/05 12:34:53;;;;;;;54.80;1.90;;;;;;;;;;5133799;27;20521;-69
2023/09/05 12:37:20;;;;;;;54.47;1.80;;;;;;;;;;5133700;27;20462;-70
2023/09/05 12:39:47;;;;;;;54.60;1.60;;;;;;;;;;5134035;27;20797;-69
2023/09/05 12:42:14;;;;;;;54.67;1.63;;;;;;;;;;5133656;27;20441;-69
2023/09/05 12:44:42;;;;;;;54.70;1.70;;;;;;;;;;5133827;27;20567;-69
2023/09/05 12:47:10;;;;;;;54.37;1.50;;;;;;;;;;5133554;27;20440;-70
2023/09/05 12:49:37;;;;;;;54.67;1.97;;;;;;;;;;5133877;27;20459;-69
2023/09/05 12:52:05;;;;;;;55.10;1.50;;;;;;;;;;5133540;27;20444;-70
2023/09/05 12:54:32;;;;;;;54.50;1.30;;;;;;;;;;5133550;27;20457;-69
2023/09/05 12:56:59;;;;;;;55.17;1.80;;;;;;;;;;5131430;27;20437;-71
2023/09/05 12:59:26;;;;;;;54.90;1.53;;;;;;;;;;5133254;27;20482;-69
2023/09/05 13:01:53;;;;;;;54.57;1.60;;;;;;;;;;5131816;27;20441;-69
2023/09/05 13:04:22;;;;;;;54.80;1.90;;;;;;;;;;5133307;27;20476;-69
2023/09/05 13:06:49;;;;;;;55.00;1.90;;;;;;;;;;5133048;27;20444;-68
2023/09/05 13:09:16;;;;;;;54.63;1.93;;;;;;;;;;5131332;27;20441;-69
2023/09/05 13:11:43;;;;;;;54.30;1.60;;;;;;;;;;5132759;27;20813;-69
2023/09/05 13:14:10;;;;;;;54.57;1.80;;;;;;;;;;5133140;27;20452;-69
2023/09/05 13:16:38;;;;;;;54.63;1.70;;;;;;;;;;5133112;27;20470;-69
2023/09/05 13:19:05;;;;;;;54.37;1.60;;;;;;;;;;5133167;27;20480;-68
2023/09/05 13:21:33;;;;;;;55.07;2.13;;;;;;;;;;5132896;27;20974;-68
2023/09/05 13:24:00;;;;;;;54.67;1.90;;;;;;;;;;5132696;27;20451;-69
2023/09/05 13:26:28;;;;;;;54.43;1.40;;;;;;;;;;5132744;27;20555;-69
2023/09/05 13:28:56;;;;;;;54.83;1.63;;;;;;;;;;5132819;27;20436;-69
2023/09/05 13:31:24;;;;;;;55.17;2.50;;;;;;;;;;5132753;27;20868;-69
2023/09/05 13:33:51;;;;;;;54.70;2.00;;;;;;;;;;5131286;27;20464;-68
2023/09/05 13:36:18;;;;;;;54.50;1.70;;;;;;;;;;5132543;27;20830;-69
2023/09/05 13:38:47;;;;;;;54.30;1.73;;;;;;;;;;5132323;27;20481;-69
2023/09/05 13:41:15;;;;;;;55.23;1.70;;;;;;;;;;5132465;27;20464;-71
2023/09/05 13:43:42;;;;;;;54.50;1.80;;;;;;;;;;5132579;27;20946;-70
2023/09/05 13:46:09;;;;;;;54.90;1.80;;;;;;;;;;5132538;27;20543;-69
2023/09/05 13:48:36;;;;;;;55.30;1.70;;;;;;;;;;5132503;27;20441;-70
2023/09/05 13:51:03;;;;;;;54.50;1.80;;;;;;;;;;5132516;27;20964;-69
2023/09/05 13:53:30;;;;;;;54.40;1.70;;;;;;;;;;5132280;27;20443;-69
2023/09/05 13:55:59;;;;;;;54.57;1.83;;;;;;;;;;5132083;27;20471;-70
2023/09/05 13:58:26;;;;;;;54.77;1.70;;;;;;;;;;5132165;27;20491;-70
2023/09/05 14:00:53;;;;;;;54.67;1.90;;;;;;;;;;5132269;27;20817;-69
2023/09/05 14:03:21;;;;;;;54.57;1.83;;;;;;;;;;5132402;27;20441;-69
2023/09/05 14:05:48;;;;;;;54.47;1.50;;;;;;;;;;5132117;27;20845;-69
2023/09/05 14:08:15;;;;;;;54.37;1.60;;;;;;;;;;5132202;27;20444;-69
2023/09/05 14:10:46;;;;;;;54.90;1.80;;;;;;;;;;5132019;27;20449;-69
2023/09/05 14:13:14;;;;;;;54.57;1.50;;;;;;;;;;5131766;27;20543;-69
2023/09/05 14:15:41;;;;;;;54.60;1.80;;;;;;;;;;5132033;27;20829;-69
2023/09/05 14:18:08;;;;;;;54.60;1.90;;;;;;;;;;5132058;27;20447;-69
2023/09/05 14:20:36;;;;;;;54.57;1.73;;;;;;;;;;5132163;27;20945;-69
2023/09/05 14:23:03;;;;;;;54.77;1.87;;;;;;;;;;5131530;27;20927;-71
2023/09/05 14:25:30;;;;;;;54.67;1.83;;;;;;;;;;5132014;27;20460;-69
2023/09/05 14:27:57;;;;;;;55.50;2.10;;;;;;;;;;5132041;27;20467;-71
2023/09/05 14:30:25;;;;;;;54.57;1.73;;;;;;;;;;5131921;27;20441;-69
2023/09/05 14:32:54;;;;;;;54.87;1.80;;;;;;;;;;5132047;27;20441;-69
2023/09/05 14:35:21;;;;;;;54.97;1.93;;;;;;;;;;5131689;27;20465;-68
2023/09/05 14:37:49;;;;;;;54.77;1.73;;;;;;;;;;5131587;27;20456;-68
2023/09/05 14:40:16;;;;;;;54.57;1.50;;;;;;;;;;5131845;27;20496;-69
2023/09/05 14:42:43;;;;;;;54.90;2.00;;;;;;;;;;5131689;27;20450;-69
2023/09/05 14:45:11;;;;;;;54.77;1.47;;;;;;;;;;5131811;27;20802;-69
2023/09/05 14:47:40;;;;;;;54.70;1.90;;;;;;;;;;5131716;27;20441;-69